Time;durP1;ratioP1;P1;durP2;ratioP2;P2;SDS_P1;SDS_P2;PMS_P1;PMS_P2;Temp;Humidity;BMP_temperature;BMP_pressure;BME280_temperature;BME280_humidity;BME280_pressure;Samples;Min_cycle;Max_cycle;Signal;HPM_P1;HPM_P2
2022/05/17 00:00:44;;;;;;;16.20;5.72;;;21.90;70.80;;;;;;4935876;29;20019;-67
2022/05/17 00:03:10;;;;;;;14.13;6.10;;;21.90;70.50;;;;;;4936148;29;20038;-68
2022/05/17 00:05:36;;;;;;;16.40;5.97;;;21.90;70.20;;;;;;4936040;29;20027;-67
2022/05/17 00:08:02;;;;;;;15.52;6.18;;;21.90;70.50;;;;;;4935913;29;20030;-66
2022/05/17 00:10:27;;;;;;;13.45;5.85;;;21.80;70.20;;;;;;4935987;29;20024;-67
2022/05/17 00:12:54;;;;;;;19.40;6.30;;;21.90;70.30;;;;;;4936219;29;20107;-66
2022/05/17 00:15:21;;;;;;;13.70;5.40;;;21.90;70.20;;;;;;4937688;29;20551;-67
2022/05/17 00:17:49;;;;;;;13.73;5.53;;;21.90;70.00;;;;;;4937177;29;20053;-67
2022/05/17 00:20:15;;;;;;;27.60;6.55;;;21.80;69.80;;;;;;4935931;29;20118;-67
2022/05/17 00:22:43;;;;;;;11.15;5.47;;;21.70;69.40;;;;;;4935934;29;20024;-66
2022/05/17 00:25:10;;;;;;;14.65;5.93;;;21.60;69.40;;;;;;4935894;29;20038;-67
2022/05/17 00:27:36;;;;;;;16.92;6.03;;;21.60;68.70;;;;;;4934819;29;20370;-66
2022/05/17 00:30:07;;;;;;;17.40;6.78;;;21.60;68.10;;;;;;4935829;29;20034;-67
2022/05/17 00:32:32;;;;;;;18.67;6.82;;;21.60;68.00;;;;;;4936369;29;20043;-67
2022/05/17 00:34:58;;;;;;;14.38;6.32;;;21.50;67.60;;;;;;4936659;29;20035;-66
2022/05/17 00:37:24;;;;;;;18.55;6.40;;;21.50;67.40;;;;;;4937074;29;20495;-67
2022/05/17 00:39:49;;;;;;;16.80;6.40;;;21.40;66.90;;;;;;4938619;29;20030;-66
2022/05/17 00:42:15;;;;;;;18.30;7.13;;;21.40;66.00;;;;;;4938462;29;20106;-67
2022/05/17 00:44:44;;;;;;;16.35;7.40;;;21.40;64.90;;;;;;4938003;29;20028;-67
2022/05/17 00:47:37;;;;;;;16.42;6.30;;;21.40;63.70;;;;;;4939057;29;20020;-67
2022/05/17 00:50:08;;;;;;;19.55;7.15;;;21.40;64.20;;;;;;4936938;29;20038;-66
2022/05/17 00:52:56;;;;;;;15.98;6.72;;;21.40;62.90;;;;;;4936058;29;20408;-67
2022/05/17 00:55:22;;;;;;;21.80;6.35;;;21.30;63.90;;;;;;4936223;29;20449;-67
2022/05/17 00:58:19;;;;;;;14.18;6.50;;;21.30;63.30;;;;;;4936696;29;20466;-66
2022/05/17 01:00:54;;;;;;;19.15;7.03;;;21.30;62.70;;;;;;4935262;29;20119;-67
2022/05/17 01:03:21;;;;;;;17.52;6.97;;;21.40;62.50;;;;;;4939237;29;20495;-66
2022/05/17 01:05:53;;;;;;;18.80;6.60;;;21.30;63.10;;;;;;4937810;29;20038;-66
2022/05/17 01:08:20;;;;;;;17.27;7.10;;;21.20;62.90;;;;;;4939116;29;20035;-67
2022/05/17 01:10:45;;;;;;;19.52;6.68;;;21.20;62.80;;;;;;4939111;29;20063;-66
2022/05/17 01:15:55;;;;;;;20.73;7.10;;;21.20;61.60;;;;;;4938663;29;20057;-67
2022/05/17 01:18:21;;;;;;;16.95;7.35;;;21.20;62.30;;;;;;4938935;29;20023;-68
2022/05/17 01:20:47;;;;;;;17.73;6.45;;;21.20;62.40;;;;;;4938764;29;20503;-65
2022/05/17 01:23:13;;;;;;;17.10;6.60;;;21.20;62.30;;;;;;4938793;29;20024;-66
2022/05/17 01:25:40;;;;;;;14.27;6.55;;;21.20;62.50;;;;;;4938817;29;20111;-68
2022/05/17 01:28:12;;;;;;;15.40;6.30;;;21.10;62.30;;;;;;4938465;29;20031;-66
2022/05/17 01:30:39;;;;;;;15.07;6.05;;;21.10;61.70;;;;;;4937176;29;20059;-67
2022/05/17 01:33:06;;;;;;;16.95;6.97;;;21.10;62.60;;;;;;4938712;29;20047;-67
2022/05/17 01:35:32;;;;;;;17.17;6.40;;;21.00;62.70;;;;;;4938347;29;20400;-67
2022/05/17 01:37:59;;;;;;;16.58;7.43;;;21.00;62.70;;;;;;4938441;29;20032;-67
2022/05/17 01:40:27;;;;;;;24.63;7.30;;;21.00;62.60;;;;;;4937100;29;20459;-66
2022/05/17 01:42:53;;;;;;;15.88;6.38;;;21.00;62.40;;;;;;4938317;29;20024;-66
2022/05/17 01:45:18;;;;;;;18.08;6.97;;;21.00;62.30;;;;;;4938496;29;20024;-67
2022/05/17 01:47:44;;;;;;;19.65;6.85;;;21.00;62.20;;;;;;4938388;29;20024;-67
2022/05/17 01:50:10;;;;;;;14.30;7.00;;;21.00;62.20;;;;;;4936705;29;20042;-67
2022/05/17 01:52:36;;;;;;;16.13;6.93;;;20.90;62.20;;;;;;4938089;29;20103;-66
2022/05/17 01:55:01;;;;;;;18.40;6.95;;;20.80;62.30;;;;;;4938274;29;20055;-67
2022/05/17 01:57:27;;;;;;;16.42;6.80;;;20.70;62.40;;;;;;4938426;29;20040;-67
2022/05/17 01:59:53;;;;;;;16.95;6.85;;;20.80;62.60;;;;;;4938204;29;20020;-65
2022/05/17 02:02:18;;;;;;;16.25;7.15;;;20.70;62.70;;;;;;4938080;29;20311;-66
2022/05/17 02:04:44;;;;;;;19.23;6.85;;;20.60;63.00;;;;;;4938029;29;20020;-67
2022/05/17 02:07:10;;;;;;;15.98;6.53;;;20.60;62.90;;;;;;4938073;29;20417;-67
2022/05/17 02:09:35;;;;;;;18.10;6.55;;;20.70;63.20;;;;;;4937863;29;20035;-67
2022/05/17 02:12:01;;;;;;;13.45;6.30;;;20.70;63.00;;;;;;4937827;29;20453;-66
2022/05/17 02:14:27;;;;;;;14.90;6.95;;;20.60;62.90;;;;;;4937752;29;20037;-66
2022/05/17 02:16:53;;;;;;;14.60;6.47;;;20.60;62.90;;;;;;4938111;29;20582;-66
2022/05/17 02:19:19;;;;;;;17.80;6.63;;;20.70;63.00;;;;;;4937640;29;20031;-67
2022/05/17 02:21:46;;;;;;;13.60;6.30;;;20.60;63.90;;;;;;4937801;29;20035;-64
2022/05/17 02:24:13;;;;;;;14.68;6.75;;;20.60;63.30;;;;;;4937661;29;20044;-66
2022/05/17 02:26:39;;;;;;;16.95;7.25;;;20.70;63.80;;;;;;4937673;29;20032;-66
2022/05/17 02:29:05;;;;;;;15.68;6.70;;;20.60;63.40;;;;;;4937450;29;20110;-66
2022/05/17 02:31:31;;;;;;;22.33;7.50;;;20.60;63.80;;;;;;4937688;29;20102;-65
2022/05/17 02:33:57;;;;;;;19.08;6.65;;;20.70;63.60;;;;;;4937691;29;20083;-66
2022/05/17 02:36:23;;;;;;;14.93;6.68;;;20.60;63.50;;;;;;4938106;29;20036;-67
2022/05/17 02:38:49;;;;;;;13.98;6.57;;;20.60;63.60;;;;;;4938384;29;20028;-66
2022/05/17 02:41:19;;;;;;;14.70;6.78;;;20.60;63.60;;;;;;4937478;29;20038;-66
2022/05/17 02:43:46;;;;;;;18.55;7.43;;;20.60;63.80;;;;;;4937304;29;20063;-67
2022/05/17 02:46:12;;;;;;;19.02;7.57;;;20.50;63.90;;;;;;4937234;29;20032;-67
2022/05/17 02:48:37;;;;;;;17.77;7.35;;;20.40;64.10;;;;;;4937216;29;20103;-67
2022/05/17 02:51:17;;;;;;;16.20;7.18;;;20.30;64.00;;;;;;4937193;29;20028;-67
2022/05/17 02:53:43;;;;;;;17.15;6.80;;;20.30;64.80;;;;;;4936814;29;20048;-67
2022/05/17 02:56:09;;;;;;;15.68;6.97;;;20.30;64.80;;;;;;4935726;29;20040;-67
2022/05/17 02:58:35;;;;;;;15.77;6.68;;;20.30;64.60;;;;;;4937175;29;20350;-67
2022/05/17 03:01:02;;;;;;;17.20;6.40;;;20.30;64.70;;;;;;4935698;29;20032;-67
2022/05/17 03:03:27;;;;;;;14.82;6.75;;;20.30;64.90;;;;;;4936743;29;20527;-67
2022/05/17 03:05:53;;;;;;;15.85;6.90;;;20.40;64.80;;;;;;4937031;29;20051;-66
2022/05/17 03:08:19;;;;;;;23.38;7.15;;;20.30;64.80;;;;;;4936992;29;20062;-67
2022/05/17 03:10:44;;;;;;;15.90;6.80;;;20.30;64.80;;;;;;4936687;29;20422;-67
2022/05/17 03:13:11;;;;;;;17.73;7.18;;;20.30;64.60;;;;;;4935302;29;20028;-67
2022/05/17 03:15:37;;;;;;;16.02;7.40;;;20.40;65.10;;;;;;4937781;29;20039;-67
2022/05/17 03:18:03;;;;;;;18.88;6.95;;;20.40;64.70;;;;;;4935621;29;20039;-67
2022/05/17 03:20:29;;;;;;;14.90;7.00;;;20.30;64.50;;;;;;4937471;29;20035;-67
2022/05/17 03:22:55;;;;;;;17.08;6.55;;;20.30;64.80;;;;;;4938465;29;20032;-67
2022/05/17 03:25:23;;;;;;;14.15;7.03;;;20.20;65.00;;;;;;4938819;29;20078;-67
2022/05/17 03:27:49;;;;;;;14.25;7.15;;;20.20;65.20;;;;;;4936777;29;20028;-67
2022/05/17 03:30:15;;;;;;;18.15;6.57;;;20.20;65.50;;;;;;4938127;29;20032;-67
2022/05/17 03:32:40;;;;;;;17.60;7.20;;;20.20;65.10;;;;;;4937519;29;20024;-67
2022/05/17 03:35:07;;;;;;;19.10;7.07;;;20.20;65.20;;;;;;4937862;29;20070;-68
2022/05/17 03:37:32;;;;;;;17.10;6.60;;;20.10;65.30;;;;;;4938083;29;20400;-67
2022/05/17 03:39:58;;;;;;;15.38;7.55;;;20.10;65.50;;;;;;4936687;29;20023;-67
2022/05/17 03:42:24;;;;;;;17.75;6.80;;;20.10;65.70;;;;;;4937943;29;20039;-68
2022/05/17 03:44:50;;;;;;;16.55;6.40;;;20.10;65.40;;;;;;4937262;29;20035;-66
2022/05/17 03:47:16;;;;;;;17.20;6.55;;;20.10;65.50;;;;;;4936445;29;20031;-67
2022/05/17 03:49:42;;;;;;;16.92;6.70;;;20.00;65.30;;;;;;4934931;29;20508;-66
2022/05/17 03:52:08;;;;;;;17.08;6.25;;;19.90;65.40;;;;;;4934761;29;20098;-66
2022/05/17 03:54:36;;;;;;;18.98;7.25;;;20.00;65.50;;;;;;4936157;29;20035;-67
2022/05/17 03:57:03;;;;;;;14.48;6.90;;;20.00;65.50;;;;;;4936249;29;20515;-67
2022/05/17 03:59:29;;;;;;;17.65;6.88;;;19.90;65.30;;;;;;4935730;29;20023;-67
2022/05/17 04:01:55;;;;;;;15.35;6.43;;;19.90;65.60;;;;;;4935917;29;20053;-67
2022/05/17 04:04:20;;;;;;;15.85;6.68;;;19.90;65.10;;;;;;4935834;29;20031;-67
2022/05/17 04:06:46;;;;;;;14.07;6.78;;;19.80;65.40;;;;;;4935634;29;20035;-67
2022/05/17 04:09:12;;;;;;;21.63;6.88;;;19.80;65.70;;;;;;4935635;29;20039;-66
2022/05/17 04:11:38;;;;;;;13.95;6.05;;;19.80;65.80;;;;;;4935684;29;20050;-67
2022/05/17 04:14:04;;;;;;;15.57;6.10;;;19.80;65.70;;;;;;4935492;29;20481;-67
2022/05/17 04:16:35;;;;;;;14.40;6.30;;;19.80;65.70;;;;;;4934338;29;20055;-66
2022/05/17 04:19:00;;;;;;;14.70;6.13;;;19.70;66.20;;;;;;4935389;29;20023;-66
2022/05/17 04:21:26;;;;;;;17.80;6.43;;;19.70;65.90;;;;;;4935473;29;20024;-66
2022/05/17 04:23:52;;;;;;;17.70;5.80;;;19.70;66.00;;;;;;4935713;29;20079;-66
2022/05/17 04:26:18;;;;;;;15.00;5.97;;;19.70;65.70;;;;;;4935343;29;20445;-67
2022/05/17 04:28:44;;;;;;;18.88;6.15;;;19.80;65.90;;;;;;4934629;29;20058;-66
2022/05/17 04:31:10;;;;;;;17.58;5.75;;;19.80;66.00;;;;;;4935429;29;20024;-68
2022/05/17 04:33:36;;;;;;;13.43;6.20;;;19.80;66.20;;;;;;4935442;29;20056;-67
2022/05/17 04:36:02;;;;;;;19.45;6.28;;;19.90;66.00;;;;;;4936000;29;20171;-67
2022/05/17 04:38:28;;;;;;;21.75;6.55;;;19.80;65.70;;;;;;4939577;29;20039;-68
2022/05/17 04:40:54;;;;;;;16.35;6.47;;;19.90;65.90;;;;;;4939177;29;20029;-66
2022/05/17 04:43:20;;;;;;;17.92;6.07;;;20.00;66.00;;;;;;4939323;29;20099;-68
2022/05/17 04:45:45;;;;;;;14.95;6.18;;;20.00;65.90;;;;;;4939335;29;20380;-66
2022/05/17 04:48:12;;;;;;;17.38;6.45;;;20.10;66.10;;;;;;4922002;29;20043;-67
2022/05/17 04:50:38;;;;;;;15.32;6.20;;;20.00;66.80;;;;;;4939426;29;20024;-67
2022/05/17 04:53:04;;;;;;;20.98;6.90;;;20.00;66.50;;;;;;4938998;29;20131;-66
2022/05/17 04:55:31;;;;;;;13.82;6.05;;;20.20;66.80;;;;;;4939434;29;20063;-66
2022/05/17 04:57:57;;;;;;;17.55;6.05;;;20.20;66.70;;;;;;4939963;29;20050;-66
2022/05/17 05:00:25;;;;;;;12.98;6.43;;;20.20;66.60;;;;;;4940501;29;20027;-67
2022/05/17 05:02:51;;;;;;;16.88;7.03;;;20.30;66.60;;;;;;4939849;29;20129;-68
2022/05/17 05:05:18;;;;;;;24.65;5.65;;;20.40;66.90;;;;;;4939114;29;20358;-66
2022/05/17 05:07:44;;;;;;;14.52;6.15;;;20.40;66.50;;;;;;4939075;29;20032;-66
2022/05/17 05:10:11;;;;;;;17.33;6.28;;;20.60;66.10;;;;;;4938706;29;20158;-66
2022/05/17 05:12:37;;;;;;;15.95;5.65;;;20.80;65.80;;;;;;4939007;29;20067;-67
2022/05/17 05:15:04;;;;;;;12.88;5.35;;;21.00;64.60;;;;;;4938875;29;20071;-66
2022/05/17 05:17:34;;;;;;;17.83;6.68;;;21.20;63.80;;;;;;4938746;29;20023;-67
2022/05/17 05:20:01;;;;;;;16.05;5.53;;;21.40;63.70;;;;;;4938816;29;20155;-67
2022/05/17 05:22:30;;;;;;;16.92;5.60;;;21.80;62.50;;;;;;4938668;29;20570;-66
2022/05/17 05:24:55;;;;;;;16.08;5.30;;;22.00;61.30;;;;;;4938763;29;20042;-67
2022/05/17 05:27:21;;;;;;;18.80;5.82;;;22.20;60.60;;;;;;4937300;29;20023;-69
2022/05/17 05:29:47;;;;;;;15.48;5.85;;;22.60;60.10;;;;;;4938336;29;20114;-67
2022/05/17 05:32:12;;;;;;;15.18;5.18;;;22.90;58.70;;;;;;4938443;29;20103;-67
2022/05/17 05:34:38;;;;;;;12.43;4.88;;;23.20;58.80;;;;;;4938835;29;20039;-67
2022/05/17 05:37:05;;;;;;;13.20;5.07;;;23.40;58.00;;;;;;4938765;29;20035;-67
2022/05/17 05:39:31;;;;;;;12.88;4.90;;;23.50;57.10;;;;;;4937540;29;20023;-68
2022/05/17 05:41:57;;;;;;;17.83;5.60;;;23.80;56.80;;;;;;4938429;29;20024;-68
2022/05/17 05:44:22;;;;;;;15.30;5.65;;;24.00;56.10;;;;;;4938235;29;20034;-67
2022/05/17 05:46:48;;;;;;;13.50;4.95;;;24.30;55.50;;;;;;4937919;29;20060;-68
2022/05/17 05:49:14;;;;;;;19.08;5.32;;;24.40;55.00;;;;;;4938180;29;20032;-68
2022/05/17 05:51:40;;;;;;;15.95;5.25;;;24.50;54.70;;;;;;4937984;29;20098;-68
2022/05/17 05:54:07;;;;;;;17.77;5.03;;;24.60;54.00;;;;;;4938448;29;20055;-68
2022/05/17 05:56:32;;;;;;;18.25;5.53;;;24.60;53.80;;;;;;4938193;29;20497;-68
2022/05/17 05:58:59;;;;;;;14.55;4.90;;;24.80;53.30;;;;;;4937968;29;20034;-68
2022/05/17 06:01:26;;;;;;;12.27;4.70;;;24.70;53.00;;;;;;4937998;29;20465;-69
2022/05/17 06:03:52;;;;;;;12.25;4.63;;;24.80;53.00;;;;;;4938061;29;20059;-68
2022/05/17 06:06:18;;;;;;;16.05;5.07;;;24.90;52.60;;;;;;4937729;29;20448;-67
2022/05/17 06:08:44;;;;;;;20.80;5.70;;;25.10;52.80;;;;;;4937914;29;20492;-68
2022/05/17 06:11:10;;;;;;;12.07;4.57;;;25.20;52.00;;;;;;4937826;29;20024;-68
2022/05/17 06:13:36;;;;;;;11.75;4.93;;;25.40;51.80;;;;;;4938379;29;20114;-68
2022/05/17 06:16:02;;;;;;;13.77;4.88;;;25.50;51.60;;;;;;4936885;29;20481;-71
2022/05/17 06:18:28;;;;;;;18.10;5.40;;;25.80;51.10;;;;;;4938316;29;20035;-70
2022/05/17 06:20:56;;;;;;;13.60;4.72;;;25.80;50.60;;;;;;4937272;29;20508;-70
2022/05/17 06:23:22;;;;;;;17.20;5.03;;;25.90;50.60;;;;;;4937358;29;20038;-68
2022/05/17 06:25:49;;;;;;;10.60;4.25;;;25.90;50.30;;;;;;4937420;29;20027;-68
2022/05/17 06:28:15;;;;;;;11.77;4.65;;;25.90;50.40;;;;;;4937419;29;20028;-68
2022/05/17 06:30:44;;;;;;;19.20;4.95;;;25.90;50.00;;;;;;4937029;29;20107;-68
2022/05/17 06:33:12;;;;;;;16.05;4.82;;;25.80;50.10;;;;;;4935793;29;20030;-70
2022/05/17 06:35:39;;;;;;;12.80;3.70;;;25.90;50.00;;;;;;4937192;29;20039;-69
2022/05/17 06:38:07;;;;;;;11.82;4.30;;;26.10;50.00;;;;;;4937188;29;20071;-70
2022/05/17 06:40:33;;;;;;;16.50;4.72;;;26.30;49.20;;;;;;4936976;29;20477;-69
2022/05/17 06:43:00;;;;;;;13.40;4.03;;;26.50;49.00;;;;;;4937126;29;20024;-73
2022/05/17 06:45:26;;;;;;;14.10;4.53;;;26.60;48.70;;;;;;4937177;29;20043;-71
2022/05/17 06:47:52;;;;;;;14.77;4.68;;;26.70;48.50;;;;;;4935827;29;20024;-69
2022/05/17 06:50:17;;;;;;;15.07;3.95;;;26.70;48.10;;;;;;4937541;29;20032;-69
2022/05/17 06:52:44;;;;;;;14.73;4.53;;;26.70;48.10;;;;;;4937060;29;20047;-69
2022/05/17 06:55:11;;;;;;;15.05;4.13;;;26.80;48.40;;;;;;4936897;29;20043;-70
2022/05/17 06:57:37;;;;;;;10.55;4.20;;;26.80;48.10;;;;;;4937501;29;20059;-70
2022/05/17 07:00:08;;;;;;;21.27;4.47;;;26.80;48.00;;;;;;4936371;29;20472;-69
2022/05/17 07:02:34;;;;;;;11.48;3.83;;;26.70;47.60;;;;;;4936985;29;20027;-69
2022/05/17 07:04:59;;;;;;;18.00;5.00;;;26.70;47.90;;;;;;4936977;29;20038;-71
2022/05/17 07:07:26;;;;;;;13.68;4.53;;;26.70;47.40;;;;;;4936699;29;20148;-70
2022/05/17 07:15:21;;;;;;;20.40;4.40;;;26.60;47.20;;;;;;4936738;29;20050;-71
2022/05/17 07:17:47;;;;;;;10.13;4.78;;;26.60;47.90;;;;;;4936566;29;20035;-67
2022/05/17 07:20:13;;;;;;;15.60;5.35;;;26.60;48.00;;;;;;4936384;29;20059;-72
2022/05/17 07:22:39;;;;;;;17.38;5.28;;;26.60;48.30;;;;;;4934943;29;20134;-72
2022/05/17 07:25:06;;;;;;;14.20;4.82;;;26.70;47.90;;;;;;4935647;29;20024;-69
2022/05/17 07:27:32;;;;;;;14.40;4.55;;;26.70;47.80;;;;;;4937866;29;20102;-71
2022/05/17 07:29:58;;;;;;;11.52;4.30;;;26.70;47.70;;;;;;4936086;29;20024;-70
2022/05/17 07:32:24;;;;;;;12.93;4.80;;;26.70;47.60;;;;;;4935122;29;20035;-72
2022/05/17 07:34:50;;;;;;;18.80;5.88;;;26.80;47.60;;;;;;4936677;29;20035;-70
2022/05/17 07:37:16;;;;;;;17.80;5.00;;;26.80;47.80;;;;;;4936263;29;20031;-68
2022/05/17 07:39:42;;;;;;;18.60;5.47;;;26.80;47.40;;;;;;4934816;29;20038;-69
2022/05/17 07:42:08;;;;;;;15.63;4.78;;;26.80;47.30;;;;;;4936334;29;20050;-70
2022/05/17 07:44:34;;;;;;;18.73;4.95;;;27.00;47.10;;;;;;4936365;29;20473;-67
2022/05/17 07:47:00;;;;;;;13.57;5.13;;;26.90;46.70;;;;;;4936216;29;20027;-70
2022/05/17 07:49:28;;;;;;;13.52;4.97;;;27.00;47.10;;;;;;4935962;29;20051;-69
2022/05/17 07:51:54;;;;;;;18.38;4.75;;;27.00;47.30;;;;;;4936606;29;20024;-69
2022/05/17 07:54:20;;;;;;;13.82;4.95;;;27.10;47.20;;;;;;4936414;29;20122;-69
2022/05/17 07:56:46;;;;;;;15.75;4.18;;;27.10;47.20;;;;;;4935755;29;20103;-69
2022/05/17 07:59:11;;;;;;;16.55;4.60;;;27.10;46.70;;;;;;4935994;29;20050;-71
2022/05/17 08:01:37;;;;;;;15.02;4.72;;;27.10;47.00;;;;;;4936357;29;20039;-69
2022/05/17 08:04:03;;;;;;;11.70;4.32;;;27.10;46.80;;;;;;4935683;29;20055;-71
2022/05/17 08:06:29;;;;;;;12.38;4.47;;;27.00;47.20;;;;;;4935536;29;20036;-71
2022/05/17 08:08:55;;;;;;;15.65;4.35;;;27.00;47.60;;;;;;4935719;29;20026;-70
2022/05/17 08:11:24;;;;;;;14.25;4.80;;;27.10;47.40;;;;;;4935809;29;20027;-72
2022/05/17 08:13:50;;;;;;;20.50;4.40;;;27.00;47.50;;;;;;4935702;29;20473;-71
2022/05/17 08:16:16;;;;;;;13.95;4.65;;;26.90;47.30;;;;;;4935636;29;20036;-71
2022/05/17 08:18:43;;;;;;;11.40;4.22;;;26.80;47.80;;;;;;4935421;29;20075;-69
2022/05/17 08:21:09;;;;;;;15.55;4.45;;;26.80;47.60;;;;;;4935775;29;20057;-71
2022/05/17 08:23:35;;;;;;;12.23;4.55;;;26.80;47.50;;;;;;4935714;29;20023;-70
2022/05/17 08:28:45;;;;;;;15.02;4.25;;;26.80;46.90;;;;;;4935734;29;20042;-73
2022/05/17 08:31:11;;;;;;;21.48;4.63;;;26.80;47.80;;;;;;4935274;29;20023;-72
2022/05/17 08:33:38;;;;;;;12.93;3.78;;;26.80;47.50;;;;;;4935570;29;20027;-71
2022/05/17 08:36:13;;;;;;;20.00;4.68;;;26.80;47.50;;;;;;4934171;29;20480;-71
2022/05/17 08:38:41;;;;;;;14.18;4.13;;;26.80;47.00;;;;;;4935490;29;20023;-72
2022/05/17 08:41:10;;;;;;;13.63;3.88;;;26.60;47.10;;;;;;4935717;29;20460;-70
2022/05/17 08:43:54;;;;;;;13.77;4.18;;;26.50;46.80;;;;;;4934022;29;20027;-70
2022/05/17 08:46:42;;;;;;;15.95;4.70;;;26.50;45.50;;;;;;4935520;29;20051;-72
2022/05/17 08:49:43;;;;;;;18.45;4.32;;;26.50;44.50;;;;;;4935463;29;20461;-70
2022/05/17 08:52:09;;;;;;;21.02;4.68;;;26.50;44.70;;;;;;4935065;29;20043;-71
2022/05/17 08:54:45;;;;;;;16.98;4.07;;;26.40;46.30;;;;;;4935318;29;20481;-70
2022/05/17 08:57:32;;;;;;;15.27;4.20;;;26.50;46.40;;;;;;4933982;29;20031;-72
2022/05/17 09:00:04;;;;;;;11.20;4.20;;;26.50;44.80;;;;;;4935322;29;20027;-71
2022/05/17 09:02:49;;;;;;;11.30;3.63;;;26.60;45.50;;;;;;4935259;29;20039;-70
2022/05/17 09:05:30;;;;;;;13.30;3.63;;;26.60;43.60;;;;;;4934203;29;20032;-70
2022/05/17 09:08:33;;;;;;;14.30;3.75;;;26.60;43.20;;;;;;4936084;29;20039;-69
2022/05/17 09:11:10;;;;;;;10.18;3.38;;;26.70;42.90;;;;;;4935169;29;20034;-70
2022/05/17 09:14:02;;;;;;;11.95;3.60;;;26.80;42.30;;;;;;4935367;29;20059;-68
2022/05/17 09:16:33;;;;;;;13.43;3.40;;;26.80;42.30;;;;;;4935118;29;20067;-71
2022/05/17 09:18:59;;;;;;;7.30;2.97;;;26.90;43.50;;;;;;4935075;29;20106;-69
2022/05/17 09:21:32;;;;;;;9.50;2.80;;;26.90;41.30;;;;;;4934980;29;20491;-70
2022/05/17 09:24:03;;;;;;;12.23;3.30;;;26.90;40.30;;;;;;4938436;29;20039;-71
2022/05/17 09:26:29;;;;;;;10.18;2.70;;;27.00;40.20;;;;;;4938549;29;20032;-71
2022/05/17 09:29:18;;;;;;;9.05;2.42;;;27.10;38.40;;;;;;4938593;29;20024;-71
2022/05/17 09:31:58;;;;;;;14.63;2.90;;;27.10;37.50;;;;;;4938475;29;20032;-72
2022/05/17 09:34:45;;;;;;;12.48;2.83;;;27.10;37.10;;;;;;4938594;29;20488;-70
2022/05/17 09:37:18;;;;;;;10.35;2.47;;;27.20;37.10;;;;;;4938550;29;20118;-71
2022/05/17 09:39:47;;;;;;;6.28;2.47;;;27.20;35.80;;;;;;4938207;29;20159;-68
2022/05/17 09:42:29;;;;;;;17.08;3.00;;;27.20;35.00;;;;;;4938044;29;20035;-71
2022/05/17 09:44:56;;;;;;;9.13;2.80;;;27.20;35.00;;;;;;4938470;29;20028;-68
2022/05/17 09:47:30;;;;;;;12.68;2.88;;;27.30;34.80;;;;;;4938268;29;20027;-69
2022/05/17 09:52:57;;;;;;;11.18;2.45;;;27.40;33.60;;;;;;4938024;29;20587;-70
2022/05/17 09:55:30;;;;;;;95.18;9.75;;;27.50;32.70;;;;;;4937933;29;20102;-68
2022/05/17 09:58:07;;;;;;;29.00;4.47;;;27.60;33.50;;;;;;4938173;29;20385;-70
2022/05/17 10:00:42;;;;;;;10.05;3.15;;;27.60;34.00;;;;;;4938458;29;20027;-69
2022/05/17 10:03:16;;;;;;;13.93;3.50;;;27.60;33.80;;;;;;4939114;29;20075;-69
2022/05/17 10:05:43;;;;;;;11.45;2.83;;;27.60;34.30;;;;;;4936706;29;20047;-71
2022/05/17 10:08:14;;;;;;;8.43;3.38;;;27.70;35.10;;;;;;4937932;29;20032;-70
2022/05/17 10:10:46;;;;;;;10.30;3.50;;;27.70;35.70;;;;;;4938122;29;20479;-69
2022/05/17 10:13:23;;;;;;;10.90;3.05;;;27.70;35.80;;;;;;4937902;29;20030;-69
2022/05/17 10:15:53;;;;;;;12.15;3.22;;;27.70;36.10;;;;;;4937804;29;20039;-71
2022/05/17 10:18:48;;;;;;;14.57;4.50;;;27.80;36.70;;;;;;4937877;29;20031;-69
2022/05/17 10:21:19;;;;;;;12.77;3.60;;;27.90;36.50;;;;;;4937813;29;20034;-71
2022/05/17 10:23:48;;;;;;;8.63;3.10;;;27.90;36.60;;;;;;4937749;29;20028;-70
2022/05/17 10:26:18;;;;;;;11.00;3.92;;;28.00;37.40;;;;;;4937992;29;20469;-70
2022/05/17 10:28:50;;;;;;;7.85;3.63;;;28.10;37.00;;;;;;4938003;29;20079;-70
2022/05/17 10:31:49;;;;;;;11.63;3.70;;;28.20;37.30;;;;;;4937658;29;20039;-68
2022/05/17 10:34:20;;;;;;;13.88;3.65;;;28.20;36.70;;;;;;4905924;29;20047;-70
2022/05/17 10:36:50;;;;;;;10.93;2.92;;;28.30;37.10;;;;;;4937403;29;20168;-71
2022/05/17 10:39:38;;;;;;;12.70;3.53;;;28.30;37.30;;;;;;4937409;29;20056;-71
2022/05/17 10:42:04;;;;;;;10.40;3.70;;;28.30;37.40;;;;;;4937376;29;20225;-68
2022/05/17 10:44:43;;;;;;;10.30;2.97;;;28.30;37.20;;;;;;4937106;29;20026;-69
2022/05/17 10:47:33;;;;;;;10.73;2.90;;;28.30;36.60;;;;;;4937316;29;20024;-68
2022/05/17 10:50:34;;;;;;;8.13;3.50;;;28.30;37.30;;;;;;4898025;29;20035;-70
2022/05/17 10:53:23;;;;;;;10.82;3.80;;;28.30;37.10;;;;;;4936938;29;20055;-70
2022/05/17 10:56:03;;;;;;;8.05;2.92;;;28.40;37.20;;;;;;4937389;29;20035;-69
2022/05/17 10:58:49;;;;;;;22.55;3.28;;;28.50;36.60;;;;;;4937362;29;20032;-69
2022/05/17 11:01:21;;;;;;;9.18;3.33;;;28.60;36.50;;;;;;4937119;29;20047;-70
2022/05/17 11:04:23;;;;;;;13.70;3.70;;;28.60;36.30;;;;;;4936990;29;20024;-70
2022/05/17 11:07:09;;;;;;;12.07;3.63;;;28.70;36.30;;;;;;4937156;29;20031;-70
2022/05/17 11:09:54;;;;;;;16.67;3.70;;;28.80;36.30;;;;;;4935447;29;20473;-69
2022/05/17 11:12:26;;;;;;;9.85;3.28;;;28.90;36.50;;;;;;4937166;29;20027;-70
2022/05/17 11:14:58;;;;;;;15.88;3.85;;;29.00;36.70;;;;;;4936897;29;20512;-72
2022/05/17 11:17:51;;;;;;;9.68;3.53;;;29.10;35.40;;;;;;4936806;29;20028;-70
2022/05/17 11:20:38;;;;;;;9.35;3.10;;;29.10;34.90;;;;;;4936647;29;20035;-70
2022/05/17 11:23:41;;;;;;;7.03;3.15;;;29.20;34.20;;;;;;4936763;29;20472;-71
2022/05/17 11:26:18;;;;;;;11.25;3.13;;;29.20;34.30;;;;;;4936462;29;20071;-70
2022/05/17 11:28:55;;;;;;;9.38;2.67;;;29.30;34.20;;;;;;4936614;29;20504;-71
2022/05/17 11:31:53;;;;;;;10.50;2.90;;;29.30;34.20;;;;;;4935443;29;20082;-72
2022/05/17 11:34:22;;;;;;;13.30;3.00;;;29.30;34.00;;;;;;4936312;29;20082;-71
2022/05/17 11:36:49;;;;;;;11.05;3.00;;;29.30;33.60;;;;;;4936538;29;20047;-70
2022/05/17 11:39:49;;;;;;;8.90;3.08;;;29.40;33.70;;;;;;4936746;29;20046;-72
2022/05/17 11:42:31;;;;;;;8.25;3.10;;;29.50;34.00;;;;;;4935077;29;20449;-71
2022/05/17 11:45:21;;;;;;;10.90;3.25;;;29.50;34.00;;;;;;4936572;29;20378;-71
2022/05/17 11:47:56;;;;;;;10.35;2.88;;;29.60;33.80;;;;;;4936388;29;20027;-71
2022/05/17 11:50:53;;;;;;;12.90;4.00;;;29.60;34.90;;;;;;4936237;29;20031;-71
2022/05/17 11:53:31;;;;;;;15.25;4.78;;;29.70;37.50;;;;;;4936107;29;20134;-72
2022/05/17 11:56:25;;;;;;;21.17;5.00;;;29.70;38.90;;;;;;4936489;29;20071;-70
2022/05/17 11:58:51;;;;;;;15.32;4.03;;;29.70;39.90;;;;;;4936333;29;20084;-72
2022/05/17 12:01:29;;;;;;;14.90;3.72;;;29.70;40.90;;;;;;4936039;29;20085;-69
2022/05/17 12:04:22;;;;;;;15.43;4.22;;;29.80;41.20;;;;;;4936228;29;20050;-67
2022/05/17 12:06:53;;;;;;;17.00;4.17;;;29.80;40.50;;;;;;4936274;29;20122;-70
2022/05/17 12:09:33;;;;;;;11.55;3.70;;;29.90;41.00;;;;;;4935814;29;20027;-68
2022/05/17 12:12:24;;;;;;;12.10;3.67;;;29.90;40.60;;;;;;4936121;29;20030;-70
2022/05/17 12:15:17;;;;;;;21.65;3.80;;;29.90;40.20;;;;;;4936260;29;20039;-69
2022/05/17 12:17:46;;;;;;;12.23;4.28;;;29.90;40.30;;;;;;4935938;29;20118;-70
2022/05/17 12:20:18;;;;;;;21.48;4.00;;;30.00;40.90;;;;;;4935769;29;20482;-72
2022/05/17 12:23:11;;;;;;;10.52;3.88;;;30.10;40.60;;;;;;4934120;29;20028;-72
2022/05/17 12:25:55;;;;;;;12.05;3.42;;;30.20;40.20;;;;;;4935642;29;20035;-71
2022/05/17 12:28:26;;;;;;;13.98;3.60;;;30.20;40.00;;;;;;4935728;29;20024;-70
2022/05/17 12:30:59;;;;;;;12.77;3.78;;;30.20;40.40;;;;;;4935602;29;20035;-72
2022/05/17 12:33:34;;;;;;;12.35;2.97;;;30.20;40.20;;;;;;4935811;29;20421;-70
2022/05/17 12:36:21;;;;;;;9.57;3.50;;;30.20;39.80;;;;;;4935445;29;20058;-70
2022/05/17 12:44:51;;;;;;;12.50;3.38;;;30.20;39.30;;;;;;4935768;29;20055;-69
2022/05/17 12:47:46;;;;;;;13.25;3.60;;;30.20;38.80;;;;;;4935644;29;20106;-71
2022/05/17 12:50:21;;;;;;;7.20;2.95;;;30.30;38.70;;;;;;4935503;29;20483;-71
2022/05/17 12:52:51;;;;;;;14.40;3.33;;;30.30;38.60;;;;;;4935351;29;20472;-70
2022/05/17 12:55:23;;;;;;;9.00;3.10;;;30.30;38.10;;;;;;4935639;29;20067;-71
2022/05/17 12:57:50;;;;;;;11.88;3.17;;;30.40;38.00;;;;;;4937419;29;20043;-73
2022/05/17 13:00:31;;;;;;;8.32;3.60;;;30.40;37.30;;;;;;4939566;29;20028;-72
2022/05/17 13:03:01;;;;;;;8.75;2.58;;;30.40;37.30;;;;;;4939769;29;20043;-73
2022/05/17 13:05:42;;;;;;;10.70;2.83;;;30.40;37.10;;;;;;4938678;29;20055;-73
2022/05/17 13:08:12;;;;;;;14.30;3.10;;;30.40;37.10;;;;;;4940031;29;20028;-73
2022/05/17 13:10:43;;;;;;;9.50;3.20;;;30.40;37.00;;;;;;4940634;29;20034;-74
2022/05/17 13:13:20;;;;;;;10.95;2.90;;;30.40;36.60;;;;;;4939094;29;20123;-70
2022/05/17 13:15:50;;;;;;;9.07;2.50;;;30.40;36.50;;;;;;4940110;29;20105;-71